1990 RAE (1990076S12165)


On this page: IBTrACS data - Map and Plots - Positions - Intensities - Original source data

Summary

Start Mar 17
End Mar 25
Basin SP
LMI 60 kt
Sources jtwc_sh
wellington
neumann
In WMO? Yes
Related storms 1990076S09176
Previous storm 1990 RAE (SP)
Previous in basin 1990 RAE (SP)
Concurrent storms 1990 GREGOARA (SI)
1990 IVOR (SP)
1990 ALEX (SI)
1990 RAE (SP)
1990 RAE (SP)
Next in basin Missing
Next storm 1990 HANTA (SI)

top of page IBTrACS Data: File Access

top of page HURSAT Data: File Access

Image of storm

top of page Plots:

Map of storm track will not appear if FTP is down
Time series of cyclone Maximum Sustained Wind will not appear if FTP is down
Time series of cyclone Minimum Central Pressure will not appear if FTP is down

top of page Track Data:Position

jtwc_sh wellington neumann
Date Lat Lon Lat Lon Lat Lon
1990-03-17 06:00:00 -12.0 165.0 -12.0 165.0
1990-03-17 12:00:00 -12.6 165.4 -12.6 165.4
1990-03-17 18:00:00 -12.8 166.2 -12.8 166.2
1990-03-18 00:00:00 -12.6 166.8 -12.6 166.8
1990-03-18 06:00:00 -12.0 167.0 -12.0 167.0
1990-03-18 12:00:00 -11.6 166.7 -11.6 166.7
1990-03-18 18:00:00 -11.5 166.4 -11.5 166.4
1990-03-19 00:00:00 -11.7 166.0 -11.7 166.0
1990-03-19 06:00:00 -12.0 166.0 -12.0 166.0
1990-03-19 12:00:00 -12.2 166.1 -12.2 166.1
1990-03-19 18:00:00 -12.4 166.2 -12.4 166.2
1990-03-20 00:00:00 -12.6 166.4 -12.6 166.4
1990-03-20 06:00:00 -12.9 167.0 -12.9 167.0
1990-03-20 12:00:00 -13.6 169.1 -13.6 169.1
1990-03-20 18:00:00 -15.2 171.8 -15.2 171.8
1990-03-21 00:00:00 -16.6 173.4 -16.6 173.4
1990-03-21 06:00:00 -17.6 173.8 -18.0 173.3 -17.6 173.8
1990-03-21 12:00:00 -18.6 173.7 -18.5 173.0 -18.6 173.7
1990-03-21 18:00:00 -19.5 173.5 -19.2 172.9 -19.5 173.5
1990-03-22 00:00:00 -20.2 173.5 -20.0 173.0 -20.2 173.5
1990-03-22 06:00:00 -21.0 173.6 -20.8 173.2 -21.0 173.6
1990-03-22 12:00:00 -21.6 173.9 -21.4 173.8 -21.6 173.9
1990-03-22 18:00:00 -21.7 174.8 -21.5 174.5 -21.7 174.8
1990-03-23 00:00:00 -21.8 176.1 -21.4 176.0 -21.8 176.1
1990-03-23 06:00:00 -22.0 178.1 -21.5 178.5 -22.0 178.1
jtwc_sh wellington neumann
1990-03-23 12:00:00 -22.5 -179.5 -22.2 180.6 -22.5 -179.5
1990-03-23 18:00:00 -23.3 -177.0 -23.1 182.8 -23.3 -177.0
1990-03-24 00:00:00 -24.0 -174.5 -24.0 185.1 -24.0 -174.5
1990-03-24 06:00:00 -25.3 -171.1 -25.1 188.2 -25.3 -171.1
1990-03-24 12:00:00 -26.5 191.5 -26.5 -168.7
1990-03-24 18:00:00 -28.8 196.2 -28.5 -164.8
1990-03-25 00:00:00 -30.9 200.4

top of pageTrack Data:Intensity

jtwc_sh wellington neumann
Date Wind Pres Wind Pres Wind Pres
1990-03-17 06:00:00 20. 20.
1990-03-17 12:00:00 20. 20.
1990-03-17 18:00:00 20. 20.
1990-03-18 00:00:00 20. 20.
1990-03-18 06:00:00 20. 20.
1990-03-18 12:00:00 20. 20.
1990-03-18 18:00:00 20. 20.
1990-03-19 00:00:00 20. 20.
1990-03-19 06:00:00 20. 20.
1990-03-19 12:00:00 20. 20.
1990-03-19 18:00:00 20. 20.
1990-03-20 00:00:00 20. 20.
1990-03-20 06:00:00 20. 20.
1990-03-20 12:00:00 20. 20.
1990-03-20 18:00:00 20. 20.
1990-03-21 00:00:00 25. 25.
1990-03-21 06:00:00 25. 30. 997. 25.
1990-03-21 12:00:00 25. 30. 997. 25.
1990-03-21 18:00:00 30. 30. 997. 30.
1990-03-22 00:00:00 35. 40. 990. 35.
1990-03-22 06:00:00 35. 40. 990. 40.
1990-03-22 12:00:00 35. 45. 987. 45.
1990-03-22 18:00:00 35. 45. 987. 50.
1990-03-23 00:00:00 35. 50. 985. 55.
1990-03-23 06:00:00 35. 50. 985. 60.
jtwc_sh wellington neumann
1990-03-23 12:00:00 35. 50. 985. 55.
1990-03-23 18:00:00 40. 45. 987. 50.
1990-03-24 00:00:00 40. 40. 990. 40.
1990-03-24 06:00:00 40. 40. 990. 35.
1990-03-24 12:00:00 35. 995. 30.
1990-03-24 18:00:00 35. 995. 25.
1990-03-25 00:00:00 30. 997.

top of page Links to source data

Source Source file Format
jtwc_sh bsh261990.txt ATCF
wellington TC_BT_1967_2006.csv:Line=3648:RAE Text table
neumann tracks.sh:Storm=895:RAE:BSH261990:JTWC&NZeal19007 HURDAT